createdAt,value
2019-01-16T00:00:55.993Z,99144.52
2019-01-16T00:03:45.319Z,99139.89
2019-01-16T00:06:33.206Z,99125.11
2019-01-16T00:09:37.621Z,99122.55
2019-01-16T00:12:32.955Z,99104.80
2019-01-16T00:15:19.768Z,99110.72
2019-01-16T00:18:17.063Z,99110.72
2019-01-16T00:21:02.756Z,99114.09
2019-01-16T00:24:03.390Z,99122.13
2019-01-16T00:27:04.446Z,99122.13
2019-01-16T00:30:11.834Z,99122.12
2019-01-16T00:33:16.233Z,99096.77
2019-01-16T00:35:55.884Z,99096.77
2019-01-16T00:38:50.928Z,99131.01
2019-01-16T00:41:31.161Z,99128.89
2019-01-16T00:44:26.070Z,99127.20
2019-01-16T00:47:06.911Z,99135.21
2019-01-16T00:50:00.654Z,99135.21
2019-01-16T00:52:42.294Z,99140.30
2019-01-16T00:55:40.436Z,99122.97
2019-01-16T00:58:18.523Z,99136.08
2019-01-16T01:01:10.993Z,99139.87
2019-01-16T01:03:58.637Z,99137.75
2019-01-16T01:07:02.863Z,99143.23
2019-01-16T01:09:51.433Z,99146.64
2019-01-16T01:12:39.182Z,99158.06
2019-01-16T01:15:27.324Z,99144.50
2019-01-16T01:18:22.778Z,99158.04
2019-01-16T01:21:10.657Z,99149.16
2019-01-16T01:23:52.091Z,99167.77
2019-01-16T01:26:41.419Z,99130.97
2019-01-16T01:29:30.710Z,99149.59
2019-01-16T01:32:31.979Z,99149.59
2019-01-16T01:35:33.572Z,99158.87
2019-01-16T01:38:40.920Z,99185.94
2019-01-16T01:41:21.253Z,99114.44
2019-01-16T01:44:22.549Z,99126.70
2019-01-16T01:47:01.354Z,99110.61
2019-01-16T01:49:39.304Z,99110.62
2019-01-16T01:52:26.295Z,99182.09
2019-01-16T01:55:15.563Z,99098.77
2019-01-16T01:58:00.024Z,99113.14
2019-01-16T02:00:49.977Z,99097.91
2019-01-16T02:03:42.372Z,99095.38
2019-01-16T02:06:25.459Z,99105.94
2019-01-16T02:09:16.465Z,99102.98
2019-01-16T02:12:02.375Z,99139.34
2019-01-16T02:14:48.457Z,99087.73
2019-01-16T02:17:37.792Z,99100.86
2019-01-16T02:20:27.312Z,99105.52
2019-01-16T02:23:10.908Z,99090.28
2019-01-16T02:26:12.535Z,99070.83
2019-01-16T02:29:10.537Z,99084.77
2019-01-16T02:32:02.757Z,99087.33
2019-01-16T02:34:43.410Z,99094.10
2019-01-16T02:37:21.554Z,99114.41
2019-01-16T02:40:09.136Z,99122.86
2019-01-16T02:43:01.342Z,99110.17
2019-01-16T02:45:47.423Z,99174.06
2019-01-16T02:48:35.485Z,99162.63
2019-01-16T02:51:36.701Z,99083.92
2019-01-16T02:54:33.475Z,99092.41
2019-01-16T02:57:40.586Z,99100.87
2019-01-16T03:00:32.554Z,99098.73
2019-01-16T03:03:30.364Z,99134.25
2019-01-16T03:06:14.491Z,99069.56
2019-01-16T03:08:59.166Z,99090.70
2019-01-16T03:11:47.085Z,99086.47
2019-01-16T03:14:38.787Z,99121.59
2019-01-16T03:17:30.080Z,99097.03
2019-01-16T03:20:22.148Z,99104.65
2019-01-16T03:23:16.361Z,99090.70
2019-01-16T03:25:54.999Z,99115.66
2019-01-16T03:28:42.486Z,99123.30
2019-01-16T03:31:29.182Z,99132.11
2019-01-16T03:34:14.672Z,99136.78
2019-01-16T03:37:18.311Z,99124.09
2019-01-16T03:40:10.724Z,99130.84
2019-01-16T03:42:58.322Z,99118.17
2019-01-16T03:45:53.613Z,99104.66
2019-01-16T03:48:41.369Z,99111.00
2019-01-16T03:51:28.995Z,99089.83
2019-01-16T03:54:16.773Z,99128.31
2019-01-16T03:57:06.861Z,99117.76
2019-01-16T03:59:53.443Z,99106.34
2019-01-16T04:02:48.631Z,99140.16
2019-01-16T04:05:40.998Z,99152.02
2019-01-16T04:08:43.958Z,99115.58
2019-01-16T04:11:37.096Z,99092.34
2019-01-16T04:14:24.364Z,99104.19
2019-01-16T04:17:25.979Z,99129.56
2019-01-16T04:20:15.330Z,99094.43
2019-01-16T04:23:04.009Z,99095.70
2019-01-16T04:25:49.257Z,99111.78
2019-01-16T04:28:47.687Z,99132.09
2019-01-16T04:31:36.332Z,99172.73
2019-01-16T04:34:31.390Z,99122.35
2019-01-16T04:37:15.678Z,99131.23
2019-01-16T04:39:54.253Z,99170.59
2019-01-16T04:42:52.860Z,99121.92
2019-01-16T04:45:42.210Z,99115.57
2019-01-16T04:48:34.400Z,99122.34
2019-01-16T04:51:32.471Z,99183.70
2019-01-16T04:54:20.417Z,99122.75
2019-01-16T04:57:27.926Z,99136.72
2019-01-16T05:00:15.616Z,99131.63
2019-01-16T05:03:25.781Z,99138.43
2019-01-16T05:06:04.084Z,99126.17
2019-01-16T05:08:51.981Z,99140.95
2019-01-16T05:11:39.779Z,99141.38
2019-01-16T05:14:29.131Z,99155.37
2019-01-16T05:17:17.116Z,99141.41
2019-01-16T05:20:09.222Z,99145.20
2019-01-16T05:23:01.507Z,99165.97
2019-01-16T05:25:50.788Z,99160.89
2019-01-16T05:28:38.523Z,99155.35
2019-01-16T05:31:18.254Z,99158.33
2019-01-16T05:34:06.149Z,99148.18
2019-01-16T05:37:01.336Z,99121.52
2019-01-16T05:39:56.606Z,99179.09
2019-01-16T05:42:55.051Z,99199.84
2019-01-16T05:45:37.532Z,99170.63
2019-01-16T05:48:33.039Z,99187.16
2019-01-16T05:51:22.430Z,99154.56
2019-01-16T05:54:13.482Z,99199.00
2019-01-16T05:56:58.191Z,99160.91
2019-01-16T05:59:53.756Z,99149.06
2019-01-16T06:02:46.131Z,99185.48
2019-01-16T06:05:41.514Z,99154.15
2019-01-16T06:08:36.597Z,99160.93
2019-01-16T06:11:20.503Z,99179.55
2019-01-16T06:14:15.604Z,99184.16
2019-01-16T06:17:10.704Z,99180.77
2019-01-16T06:20:11.902Z,99220.97
2019-01-16T06:23:07.044Z,99220.98
2019-01-16T06:25:58.871Z,99221.38
2019-01-16T06:28:35.964Z,99198.11
2019-01-16T06:31:25.273Z,99260.33
2019-01-16T06:34:17.767Z,99220.12
2019-01-16T06:37:04.123Z,99246.81
2019-01-16T06:39:49.298Z,99262.88
2019-01-16T06:42:37.226Z,99243.01
2019-01-16T06:45:29.712Z,99227.73
2019-01-16T06:48:14.589Z,99246.36
2019-01-16T06:51:21.722Z,99265.84
2019-01-16T06:54:08.909Z,99247.64
2019-01-16T06:57:16.155Z,99252.72
2019-01-16T06:59:54.742Z,99249.33
2019-01-16T07:02:46.936Z,99265.00
2019-01-16T07:05:27.749Z,99278.55
2019-01-16T07:08:17.096Z,99276.42
2019-01-16T07:11:18.310Z,99278.97
2019-01-16T07:14:07.676Z,99278.95
2019-01-16T07:17:06.079Z,99268.80
2019-01-16T07:19:53.723Z,99273.88
2019-01-16T07:22:38.404Z,99276.85
2019-01-16T07:25:28.140Z,99289.11
2019-01-16T07:28:20.445Z,99283.59
2019-01-16T07:31:18.174Z,99279.81
2019-01-16T07:34:10.301Z,99310.73
2019-01-16T07:37:08.682Z,99314.52
2019-01-16T07:39:49.711Z,99330.20
2019-01-16T07:42:46.659Z,99298.85
2019-01-16T07:45:39.220Z,99299.30
2019-01-16T07:48:27.269Z,99311.98
2019-01-16T07:51:18.711Z,99309.84
2019-01-16T07:54:06.729Z,99350.94
2019-01-16T07:56:54.656Z,99321.28
2019-01-16T07:59:50.115Z,99355.17
2019-01-16T08:02:39.436Z,99330.61
2019-01-16T08:05:37.660Z,99313.23
2019-01-16T08:08:27.662Z,99329.75
2019-01-16T08:11:19.710Z,99314.50
2019-01-16T08:14:09.006Z,99327.64
2019-01-16T08:16:57.050Z,99323.37
2019-01-16T08:19:55.389Z,99335.63
2019-01-16T08:22:47.520Z,99329.27
2019-01-16T08:25:48.713Z,99327.17
2019-01-16T08:28:42.280Z,99338.17
2019-01-16T08:31:34.460Z,99327.99
2019-01-16T08:34:17.152Z,99352.98
2019-01-16T08:37:06.549Z,99332.64
2019-01-16T08:39:54.496Z,99338.98
2019-01-16T08:42:42.285Z,99408.89
2019-01-16T08:45:34.421Z,99352.97
2019-01-16T08:48:23.836Z,99329.67
2019-01-16T08:51:11.505Z,99339.42
2019-01-16T08:53:59.377Z,99340.29
2019-01-16T08:56:54.428Z,99326.72
2019-01-16T08:59:55.755Z,99318.67
2019-01-16T09:02:54.420Z,99317.84
2019-01-16T09:05:42.578Z,99319.12
2019-01-16T09:08:40.874Z,99317.86
2019-01-16T09:11:28.784Z,99321.69
2019-01-16T09:14:16.483Z,99317.45
2019-01-16T09:17:05.883Z,99322.55
2019-01-16T09:19:46.021Z,99361.08
2019-01-16T09:22:25.743Z,99326.78
2019-01-16T09:25:24.198Z,99327.63
2019-01-16T09:28:15.178Z,99325.11
2019-01-16T09:31:07.511Z,99325.09
2019-01-16T09:34:08.994Z,99316.19
2019-01-16T09:36:51.678Z,99300.96
2019-01-16T09:39:39.749Z,99288.67
2019-01-16T09:42:40.222Z,99304.31
2019-01-16T09:45:27.954Z,99327.13
2019-01-16T09:48:12.092Z,99313.13
2019-01-16T09:51:10.564Z,99308.44
2019-01-16T09:54:14.791Z,99301.63
2019-01-16T09:57:09.939Z,99302.95
2019-01-16T09:59:57.642Z,99302.48
2019-01-16T10:02:45.468Z,99317.25
2019-01-16T10:05:33.006Z,99304.97
2019-01-16T10:08:21.591Z,99299.86
2019-01-16T10:11:16.810Z,99276.12
2019-01-16T10:14:06.125Z,99289.62
2019-01-16T10:16:47.251Z,99300.27
2019-01-16T10:19:34.240Z,99295.22
2019-01-16T10:22:43.598Z,99286.81
2019-01-16T10:25:30.911Z,99291.43
2019-01-16T10:28:12.153Z,99270.70
2019-01-16T10:31:01.257Z,99278.81
2019-01-16T10:33:50.506Z,99311.39
2019-01-16T10:36:41.826Z,99303.37
2019-01-16T10:39:29.716Z,99284.30
2019-01-16T10:42:18.923Z,99291.94
2019-01-16T10:45:10.998Z,99259.34
2019-01-16T10:48:04.282Z,99249.06
2019-01-16T10:51:03.027Z,99262.27
2019-01-16T10:53:45.314Z,99241.79
2019-01-16T10:56:34.647Z,99233.19
2019-01-16T10:59:24.186Z,99224.34
2019-01-16T11:02:11.684Z,99235.38
2019-01-16T11:04:59.526Z,99236.59
2019-01-16T11:07:51.417Z,99231.42
2019-01-16T11:10:38.988Z,99230.05
2019-01-16T11:13:31.089Z,99229.20
2019-01-16T11:16:26.322Z,99222.44
2019-01-16T11:19:08.868Z,99260.61
2019-01-16T11:21:56.971Z,99220.42
2019-01-16T11:24:52.461Z,99227.67
2019-01-16T11:27:44.820Z,99225.48
2019-01-16T11:30:40.075Z,99212.70
2019-01-16T11:33:26.258Z,99218.13
2019-01-16T11:36:14.113Z,99215.56
2019-01-16T11:39:01.962Z,99205.80
2019-01-16T11:41:50.979Z,99204.95
2019-01-16T11:44:41.934Z,99210.39
2019-01-16T11:47:38.678Z,99196.47
2019-01-16T11:50:31.252Z,99217.63
2019-01-16T11:53:18.904Z,99198.06
2019-01-16T11:56:26.593Z,99199.09
2019-01-16T11:59:12.563Z,99194.88
2019-01-16T12:02:04.941Z,99194.27
2019-01-16T12:05:00.330Z,99194.64
2019-01-16T12:07:52.454Z,99197.53
2019-01-16T12:10:40.154Z,99197.56
2019-01-16T12:13:18.676Z,99193.80
2019-01-16T12:16:10.681Z,99173.88
2019-01-16T12:18:52.345Z,99188.97
2019-01-16T12:21:50.408Z,99187.21
2019-01-16T12:24:45.895Z,99187.18
2019-01-16T12:27:34.342Z,99183.66
2019-01-16T12:30:20.432Z,99187.86
2019-01-16T12:33:04.657Z,99184.09
2019-01-16T12:35:52.666Z,99176.03
2019-01-16T12:38:33.455Z,99186.16
2019-01-16T12:41:31.346Z,99181.44
2019-01-16T12:44:26.598Z,99183.16
2019-01-16T12:47:22.093Z,99172.83
2019-01-16T12:50:17.493Z,99166.16
2019-01-16T12:53:05.420Z,99170.37
2019-01-16T12:56:00.915Z,99164.45
2019-01-16T12:58:40.760Z,99179.56
2019-01-16T13:01:30.101Z,99171.56
2019-01-16T13:04:18.421Z,99179.20
2019-01-16T13:07:19.873Z,99192.87
2019-01-16T13:10:07.488Z,99187.46
2019-01-16T13:12:52.926Z,99178.86
2019-01-16T13:15:40.969Z,99171.89
2019-01-16T13:18:33.312Z,99174.84
2019-01-16T13:21:28.756Z,99177.69
2019-01-16T13:24:36.296Z,99177.66
2019-01-16T13:27:25.869Z,99173.34
2019-01-16T13:30:09.113Z,99172.63
2019-01-16T13:33:04.520Z,99165.20
2019-01-16T13:35:52.366Z,99160.66
2019-01-16T13:38:40.138Z,99163.70
2019-01-16T13:41:42.470Z,99159.15
2019-01-16T13:44:29.269Z,99156.92
2019-01-16T13:47:21.281Z,99157.63
2019-01-16T13:50:28.931Z,99152.09
2019-01-16T13:53:33.553Z,99151.63
2019-01-16T13:56:22.962Z,99148.92
2019-01-16T13:59:11.011Z,99159.42
2019-01-16T14:01:55.854Z,99160.20
2019-01-16T14:04:47.166Z,99156.32
2019-01-16T14:07:34.006Z,99147.95
2019-01-16T14:10:22.400Z,99156.81
2019-01-16T14:13:10.293Z,99142.72
2019-01-16T14:16:05.544Z,99142.66
2019-01-16T14:18:53.399Z,99147.87
2019-01-16T14:21:42.758Z,99148.17
2019-01-16T14:24:26.874Z,99145.60
2019-01-16T14:27:18.631Z,99145.30
2019-01-16T14:30:10.803Z,99140.19
2019-01-16T14:32:58.012Z,99144.12
2019-01-16T14:35:47.318Z,99139.86
2019-01-16T14:38:36.625Z,99131.23
2019-01-16T14:41:26.007Z,99136.12
2019-01-16T14:44:27.546Z,99123.66
2019-01-16T14:47:34.838Z,99123.05
2019-01-16T14:50:24.069Z,99118.42
2019-01-16T14:53:16.219Z,99121.14
2019-01-16T14:56:05.627Z,99117.20
2019-01-16T14:58:54.369Z,99122.95
2019-01-16T15:01:42.202Z,99121.83
2019-01-16T15:04:39.418Z,99102.94
2019-01-16T15:07:28.849Z,99101.67
2019-01-16T15:10:22.864Z,99102.80
2019-01-16T15:13:10.649Z,99099.34
2019-01-16T15:16:00.891Z,99085.30
2019-01-16T15:18:53.102Z,99086.41
2019-01-16T15:21:57.860Z,99089.20
2019-01-16T15:24:39.194Z,99081.28
2019-01-16T15:27:26.425Z,99082.55
2019-01-16T15:30:11.786Z,99089.50
2019-01-16T15:33:16.331Z,99092.52
2019-01-16T15:36:05.930Z,99091.27
2019-01-16T15:38:46.723Z,99090.02
2019-01-16T15:41:42.165Z,99093.53
2019-01-16T15:44:46.671Z,99093.13
2019-01-16T15:47:42.064Z,99091.08
2019-01-16T15:50:33.100Z,99083.56
2019-01-16T15:53:25.377Z,99090.84
2019-01-16T15:56:32.674Z,99087.08
2019-01-16T15:59:12.914Z,99079.95
2019-01-16T16:02:08.372Z,99083.83
2019-01-16T16:07:39.100Z,99076.31
2019-01-16T16:10:27.920Z,99073.80
2019-01-16T16:13:26.157Z,99070.02
2019-01-16T16:16:16.585Z,99063.70
2019-01-16T16:19:14.993Z,99063.72
2019-01-16T16:22:02.759Z,99053.19
2019-01-16T16:25:03.158Z,99055.72
2019-01-16T16:27:58.647Z,99048.96
2019-01-16T16:30:39.990Z,99039.66
2019-01-16T16:33:22.390Z,99039.25
2019-01-16T16:36:14.462Z,99032.08
2019-01-16T16:39:06.164Z,99031.23
2019-01-16T16:41:55.526Z,99033.35
2019-01-16T16:45:02.653Z,99029.97
2019-01-16T16:47:50.552Z,99033.75
2019-01-16T16:50:51.627Z,99029.55
2019-01-16T16:53:39.205Z,99034.63
2019-01-16T16:56:27.170Z,99021.95
2019-01-16T16:59:31.527Z,99016.06
2019-01-16T17:02:26.557Z,99018.58
2019-01-16T17:05:10.190Z,99022.83
2019-01-16T17:08:05.564Z,99027.06
2019-01-16T17:11:06.603Z,99022.84
2019-01-16T17:13:56.136Z,99021.59
2019-01-16T17:16:51.235Z,99022.87
2019-01-16T17:19:40.574Z,99014.00
2019-01-16T17:22:32.499Z,99014.44
2019-01-16T17:25:34.075Z,99011.90
2019-01-16T17:28:29.110Z,99020.34
2019-01-16T17:31:36.221Z,99012.73
2019-01-16T17:34:23.340Z,99018.22
2019-01-16T17:37:27.521Z,99020.77
2019-01-16T17:40:08.310Z,99032.58
2019-01-16T17:42:54.275Z,99027.09
2019-01-16T17:45:42.142Z,99026.67
2019-01-16T17:48:22.376Z,99025.84
2019-01-16T17:51:11.812Z,99032.17
2019-01-16T17:54:04.032Z,99030.89
2019-01-16T17:56:51.700Z,99019.48
2019-01-16T17:59:39.413Z,99013.13
2019-01-16T18:02:25.695Z,99003.44
2019-01-16T18:05:09.212Z,98996.23
2019-01-16T18:07:47.275Z,98996.23
2019-01-16T18:10:34.526Z,98990.74
2019-01-16T18:13:22.280Z,98993.28
2019-01-16T18:16:14.404Z,98993.29
2019-01-16T18:19:15.842Z,98988.65
2019-01-16T18:22:13.717Z,98994.97
2019-01-16T18:25:05.881Z,98985.27
2019-01-16T18:27:53.580Z,98985.27
2019-01-16T18:31:00.729Z,98976.84
2019-01-16T18:33:40.300Z,98978.07
2019-01-16T18:36:36.648Z,98976.81
2019-01-16T18:39:43.141Z,98974.68
2019-01-16T18:42:32.484Z,98974.68
2019-01-16T18:45:20.045Z,98962.39
2019-01-16T18:48:13.492Z,98967.91
2019-01-16T18:51:08.907Z,98961.14
2019-01-16T18:54:13.230Z,98961.14
2019-01-16T18:57:05.280Z,98954.80
2019-01-16T18:59:54.642Z,98958.54
2019-01-16T19:02:49.647Z,98958.54
2019-01-16T19:05:34.577Z,98960.56
2019-01-16T19:08:42.042Z,98960.56
2019-01-16T19:11:29.759Z,98951.25
2019-01-16T19:14:17.493Z,98947.36
2019-01-16T19:17:12.646Z,98947.36
2019-01-16T19:20:08.652Z,98935.52
2019-01-16T19:22:58.145Z,98945.19
2019-01-16T19:25:50.540Z,98933.84
2019-01-16T19:28:42.981Z,98930.92
2019-01-16T19:31:35.404Z,98928.81
2019-01-16T19:34:15.674Z,98934.69
2019-01-16T19:37:04.993Z,98932.58
2019-01-16T19:40:04.412Z,98927.11
2019-01-16T19:43:11.652Z,98922.11
2019-01-16T19:46:00.996Z,98926.33
2019-01-16T19:48:51.697Z,98932.27
2019-01-16T19:51:56.182Z,98933.11
2019-01-16T19:54:54.390Z,98927.65
2019-01-16T19:57:42.228Z,98931.03
2019-01-16T20:00:35.137Z,98932.23
2019-01-16T20:03:42.260Z,98925.46
2019-01-16T20:06:30.934Z,98921.30
2019-01-16T20:09:18.786Z,98924.70
2019-01-16T20:12:13.305Z,98923.45
2019-01-16T20:14:58.588Z,98921.35
2019-01-16T20:17:40.824Z,98925.56
2019-01-16T20:20:30.194Z,98925.56
2019-01-16T20:23:25.623Z,98924.27
2019-01-16T20:26:12.179Z,98919.59
2019-01-16T20:29:07.475Z,98923.72
2019-01-16T20:31:59.553Z,98924.52
2019-01-16T20:34:49.012Z,98924.02
2019-01-16T20:37:56.284Z,98918.86
2019-01-16T20:40:51.753Z,98918.86
2019-01-16T20:43:39.460Z,98913.38
2019-01-16T20:46:38.034Z,98906.66
2019-01-16T20:49:39.554Z,98908.83
2019-01-16T20:52:27.668Z,98906.02
2019-01-16T20:55:15.714Z,98904.06
2019-01-16T20:58:07.127Z,98906.13
2019-01-16T21:00:54.825Z,98904.72
2019-01-16T21:03:42.779Z,98902.11
2019-01-16T21:06:30.588Z,98898.31
2019-01-16T21:09:16.485Z,98901.25
2019-01-16T21:12:04.492Z,98907.22
2019-01-16T21:14:57.702Z,98906.80
2019-01-16T21:17:39.513Z,98904.23
2019-01-16T21:20:29.481Z,98897.88
2019-01-16T21:23:06.678Z,98897.82
2019-01-16T21:25:54.420Z,98893.14
2019-01-16T21:28:43.763Z,98893.89
2019-01-16T21:31:36.090Z,98887.16
2019-01-16T21:34:24.080Z,98887.20
2019-01-16T21:37:28.410Z,98882.08
2019-01-16T21:40:29.808Z,98881.67
2019-01-16T21:43:17.593Z,98880.91
2019-01-16T21:46:15.727Z,98881.28
2019-01-16T21:49:07.982Z,98876.59
2019-01-16T21:51:55.039Z,98874.03
2019-01-16T21:54:41.939Z,98876.55
2019-01-16T21:57:29.527Z,98874.03
2019-01-16T22:00:18.964Z,98872.36
2019-01-16T22:03:20.298Z,98868.13
2019-01-16T22:06:08.072Z,98863.98
2019-01-16T22:09:03.146Z,98857.23
2019-01-16T22:12:10.235Z,98854.75
2019-01-16T22:15:08.564Z,98851.80
2019-01-16T22:17:55.632Z,98840.84
2019-01-16T22:20:53.831Z,98850.95
2019-01-16T22:23:42.251Z,98846.69
2019-01-16T22:26:20.521Z,98849.24
2019-01-16T22:29:08.202Z,98845.84
2019-01-16T22:32:00.273Z,98840.39
2019-01-16T22:34:41.567Z,98842.03
2019-01-16T22:37:36.836Z,98832.72
2019-01-16T22:40:19.827Z,98829.78
2019-01-16T22:43:24.014Z,98828.53
2019-01-16T22:46:25.311Z,98827.66
2019-01-16T22:49:04.931Z,98822.97
2019-01-16T22:51:57.394Z,98834.30
2019-01-16T22:54:57.227Z,98816.33
2019-01-16T22:57:58.335Z,98810.88
2019-01-16T23:00:51.562Z,98820.05
2019-01-16T23:03:41.760Z,98810.29
2019-01-16T23:06:49.067Z,98805.25
2019-01-16T23:09:41.268Z,98807.28
2019-01-16T23:12:29.200Z,98804.67
2019-01-16T23:15:16.847Z,98794.19
2019-01-16T23:18:16.398Z,98791.20
2019-01-16T23:21:08.084Z,98795.72
2019-01-16T23:24:04.751Z,98795.66
2019-01-16T23:26:59.896Z,98793.91
2019-01-16T23:30:07.244Z,98794.25
2019-01-16T23:33:02.422Z,98784.73
2019-01-16T23:35:52.226Z,98780.05
2019-01-16T23:38:47.557Z,98779.54
2019-01-16T23:41:54.670Z,98771.07
2019-01-16T23:44:40.029Z,98774.31
2019-01-16T23:47:32.226Z,98767.47
2019-01-16T23:50:27.449Z,98764.44
2019-01-16T23:53:26.245Z,98768.19
2019-01-16T23:56:21.659Z,98762.84
2019-01-16T23:59:02.798Z,98757.98
